Time;durP1;ratioP1;P1;durP2;ratioP2;P2;SDS_P1;SDS_P2;PMS_P1;PMS_P2;Temp;Humidity;BMP_temperature;BMP_pressure;BME280_temperature;BME280_humidity;BME280_pressure;Samples;Min_cycle;Max_cycle;Signal;HPM_P1;HPM_P2
2021/10/31 00:01:16;;;;;;;8.60;7.28;;;11.50;99.90;;;;;;5051554;28;20013;-85
2021/10/31 00:03:42;;;;;;;8.48;6.97;;;11.50;99.90;;;;;;5051669;28;20044;-85
2021/10/31 00:06:08;;;;;;;8.85;6.72;;;11.50;99.90;;;;;;5051522;28;20155;-86
2021/10/31 00:08:34;;;;;;;9.80;7.13;;;11.50;99.90;;;;;;5051279;28;20048;-85
2021/10/31 00:11:01;;;;;;;8.38;7.07;;;11.50;99.90;;;;;;5051467;28;20024;-86
2021/10/31 00:13:28;;;;;;;7.22;6.53;;;11.50;99.90;;;;;;5051055;28;20067;-85
2021/10/31 00:15:53;;;;;;;9.52;6.72;;;11.50;99.90;;;;;;5051215;28;20021;-86
2021/10/31 00:18:19;;;;;;;8.98;6.50;;;11.50;99.90;;;;;;5051427;28;20556;-85
2021/10/31 00:20:45;;;;;;;8.85;6.38;;;11.50;99.90;;;;;;5051220;28;20086;-86
2021/10/31 00:23:11;;;;;;;7.50;5.82;;;11.50;99.90;;;;;;5051154;28;20143;-87
2021/10/31 00:25:37;;;;;;;10.73;6.88;;;11.50;99.90;;;;;;5033385;28;20047;-85
2021/10/31 00:28:02;;;;;;;7.78;6.60;;;11.50;99.90;;;;;;5033305;28;20107;-86
2021/10/31 00:30:28;;;;;;;9.02;6.35;;;11.50;99.90;;;;;;5050897;28;20044;-85
2021/10/31 00:32:54;;;;;;;9.07;6.60;;;11.40;99.90;;;;;;5033531;28;20452;-85
2021/10/31 00:35:20;;;;;;;8.32;6.30;;;11.40;99.90;;;;;;5051101;28;20547;-86
2021/10/31 00:37:45;;;;;;;9.77;6.68;;;11.40;99.90;;;;;;5051070;28;20058;-86
2021/10/31 00:40:12;;;;;;;8.43;6.53;;;11.40;99.90;;;;;;5051240;28;20391;-85
2021/10/31 00:42:39;;;;;;;7.30;6.28;;;11.40;99.90;;;;;;5051122;28;20479;-86
2021/10/31 00:45:06;;;;;;;6.78;6.03;;;11.40;99.90;;;;;;5050985;28;20155;-85
2021/10/31 00:47:31;;;;;;;6.93;6.20;;;11.40;99.90;;;;;;5050935;28;20108;-86
2021/10/31 00:49:57;;;;;;;6.70;5.53;;;11.30;99.90;;;;;;5051049;28;20115;-85
2021/10/31 00:52:24;;;;;;;7.00;5.78;;;11.30;99.90;;;;;;5051014;28;20479;-85
2021/10/31 00:54:51;;;;;;;7.07;5.85;;;11.30;99.90;;;;;;5050983;28;20479;-86
2021/10/31 00:57:17;;;;;;;8.48;6.22;;;11.30;99.90;;;;;;5048691;28;20024;-86
2021/10/31 00:59:43;;;;;;;9.13;5.93;;;11.40;99.90;;;;;;5049320;28;20552;-86
2021/10/31 01:02:11;;;;;;;6.57;5.68;;;11.30;99.90;;;;;;5033070;28;20027;-86
2021/10/31 01:04:42;;;;;;;6.00;5.40;;;11.30;99.90;;;;;;5051012;28;20021;-86
2021/10/31 01:07:14;;;;;;;5.90;4.97;;;11.30;99.90;;;;;;5033071;28;20106;-85
2021/10/31 01:10:17;;;;;;;9.75;5.90;;;11.30;99.90;;;;;;5051688;28;20056;-86
2021/10/31 01:13:09;;;;;;;6.82;4.85;;;11.30;99.90;;;;;;5052473;28;20025;-86
2021/10/31 01:15:45;;;;;;;6.25;5.28;;;11.30;99.90;;;;;;4996816;28;20025;-86
2021/10/31 01:19:02;;;;;;;8.77;5.50;;;11.30;99.90;;;;;;5036659;28;20054;-85
2021/10/31 01:21:43;;;;;;;7.20;5.47;;;11.20;99.90;;;;;;4996685;28;20048;-85
2021/10/31 01:24:17;;;;;;;5.85;5.03;;;11.30;99.90;;;;;;5036728;28;20032;-86
2021/10/31 01:27:13;;;;;;;7.20;4.85;;;11.20;99.90;;;;;;5051964;28;20056;-85
2021/10/31 01:30:03;;;;;;;7.25;5.38;;;11.20;99.90;;;;;;5054335;28;20021;-84
2021/10/31 01:32:37;;;;;;;8.95;5.32;;;11.20;99.90;;;;;;5034614;28;20413;-85
2021/10/31 01:35:38;;;;;;;6.45;5.40;;;11.20;99.90;;;;;;5033844;28;20025;-85
2021/10/31 01:38:46;;;;;;;8.20;5.50;;;11.20;99.90;;;;;;4992425;28;20056;-85
2021/10/31 01:41:25;;;;;;;5.63;5.18;;;11.10;99.90;;;;;;5035054;28;20065;-84
2021/10/31 01:44:28;;;;;;;5.97;5.38;;;11.10;99.90;;;;;;5036152;28;20029;-85
2021/10/31 01:47:21;;;;;;;5.45;4.72;;;11.10;99.90;;;;;;5034818;28;20051;-85
2021/10/31 01:49:59;;;;;;;7.20;5.47;;;11.10;99.90;;;;;;5048756;28;20017;-85
2021/10/31 01:52:37;;;;;;;5.38;4.82;;;11.10;99.90;;;;;;5036032;28;20033;-85
2021/10/31 01:55:11;;;;;;;5.93;4.80;;;11.10;99.90;;;;;;5053575;28;20021;-86
2021/10/31 01:57:43;;;;;;;5.32;4.82;;;11.10;99.90;;;;;;5053745;28;20360;-84
2021/10/31 02:00:13;;;;;;;5.93;5.00;;;11.00;99.90;;;;;;5051352;28;20228;-86
2021/10/31 02:02:42;;;;;;;6.43;5.75;;;11.00;99.90;;;;;;5053644;28;20013;-84
2021/10/31 02:05:09;;;;;;;5.78;5.28;;;11.00;99.90;;;;;;5051123;28;20025;-85
2021/10/31 02:07:38;;;;;;;8.15;4.70;;;11.00;99.90;;;;;;5053456;28;20017;-85
2021/10/31 02:10:05;;;;;;;4.95;4.50;;;11.00;99.90;;;;;;5053394;28;20033;-85
2021/10/31 02:12:33;;;;;;;5.97;5.38;;;11.00;99.90;;;;;;5035484;28;20096;-85
2021/10/31 02:14:59;;;;;;;7.45;4.65;;;11.00;99.90;;;;;;5053566;28;20208;-84
2021/10/31 02:17:26;;;;;;;4.40;4.00;;;11.00;99.90;;;;;;5053560;28;20031;-86
2021/10/31 02:19:54;;;;;;;4.78;4.25;;;11.00;99.90;;;;;;5053346;28;20483;-85
2021/10/31 02:22:27;;;;;;;6.07;4.97;;;11.00;99.90;;;;;;5053598;28;20036;-86
2021/10/31 02:24:54;;;;;;;4.43;4.03;;;11.00;99.90;;;;;;5048479;28;20025;-85
2021/10/31 02:27:22;;;;;;;6.22;3.92;;;11.00;99.90;;;;;;5035540;28;20043;-85
2021/10/31 02:29:56;;;;;;;5.10;4.68;;;11.10;99.90;;;;;;5053351;28;20104;-85
2021/10/31 02:32:26;;;;;;;4.28;3.80;;;11.10;99.90;;;;;;5053117;28;20061;-85
2021/10/31 02:34:53;;;;;;;5.18;4.68;;;11.10;99.90;;;;;;5033191;28;20087;-86
2021/10/31 02:37:19;;;;;;;4.45;4.10;;;11.10;99.90;;;;;;5053289;28;20025;-86
2021/10/31 02:39:45;;;;;;;4.53;4.13;;;11.10;99.90;;;;;;5053099;28;20092;-86
2021/10/31 02:42:12;;;;;;;5.07;4.68;;;11.00;99.90;;;;;;5050385;28;20051;-84
2021/10/31 02:44:39;;;;;;;4.65;4.25;;;11.10;99.90;;;;;;5052888;28;20024;-85
2021/10/31 02:47:07;;;;;;;4.55;4.18;;;11.10;99.90;;;;;;5052848;28;20021;-84
2021/10/31 02:49:34;;;;;;;5.20;4.70;;;11.00;99.90;;;;;;5050072;28;20012;-86
2021/10/31 02:52:15;;;;;;;5.25;4.18;;;11.10;99.90;;;;;;5052862;28;20024;-84
2021/10/31 02:55:20;;;;;;;4.22;3.83;;;11.10;99.90;;;;;;5033261;28;20021;-86
2021/10/31 02:57:54;;;;;;;7.32;4.72;;;11.10;99.90;;;;;;5051749;28;20047;-84
2021/10/31 03:00:20;;;;;;;5.18;4.45;;;11.10;99.90;;;;;;5050665;28;20447;-85
2021/10/31 03:02:48;;;;;;;5.97;4.00;;;11.10;99.90;;;;;;5052752;28;20066;-85
2021/10/31 03:05:14;;;;;;;4.55;4.13;;;11.10;99.90;;;;;;5052675;28;20021;-85
2021/10/31 03:07:40;;;;;;;5.05;4.55;;;11.10;99.90;;;;;;5033311;28;20027;-85
2021/10/31 03:10:06;;;;;;;6.43;4.97;;;11.10;99.90;;;;;;5034802;28;20021;-84
2021/10/31 03:12:32;;;;;;;4.85;4.45;;;11.10;99.90;;;;;;5052341;28;20032;-84
2021/10/31 03:14:58;;;;;;;5.32;4.82;;;11.00;99.90;;;;;;5052096;28;20025;-84
2021/10/31 03:17:24;;;;;;;5.88;4.82;;;11.00;99.90;;;;;;5034745;28;20055;-85
2021/10/31 03:19:50;;;;;;;4.63;4.18;;;11.10;99.90;;;;;;5052215;28;20525;-86
2021/10/31 03:22:16;;;;;;;4.75;4.28;;;11.10;99.90;;;;;;5052191;28;20364;-86
2021/10/31 03:24:42;;;;;;;6.95;4.93;;;11.10;99.90;;;;;;5052336;28;20170;-86
2021/10/31 03:27:07;;;;;;;5.38;4.88;;;11.10;99.90;;;;;;5052296;28;20025;-86
2021/10/31 03:29:33;;;;;;;6.05;5.00;;;11.20;99.90;;;;;;5052274;28;20025;-85
2021/10/31 03:31:59;;;;;;;7.22;4.60;;;11.20;99.90;;;;;;5051959;28;20029;-86
2021/10/31 03:34:25;;;;;;;7.07;5.65;;;11.20;99.90;;;;;;5052335;28;20025;-86
2021/10/31 03:36:51;;;;;;;6.47;5.10;;;11.20;99.90;;;;;;5052117;28;20108;-86
2021/10/31 03:39:17;;;;;;;6.30;4.60;;;11.20;99.90;;;;;;5033969;28;20083;-86
2021/10/31 03:41:45;;;;;;;5.55;4.97;;;11.20;99.90;;;;;;5034000;28;20227;-86
2021/10/31 03:44:14;;;;;;;5.63;4.93;;;11.20;99.90;;;;;;5051772;28;20021;-86
2021/10/31 03:46:40;;;;;;;6.65;5.00;;;11.20;99.90;;;;;;5054777;28;20021;-86
2021/10/31 03:49:06;;;;;;;5.90;4.85;;;11.20;99.90;;;;;;5051897;28;20056;-86
2021/10/31 03:51:32;;;;;;;6.82;4.82;;;11.20;99.90;;;;;;5052000;28;20506;-86
2021/10/31 03:53:58;;;;;;;5.90;5.00;;;11.20;99.90;;;;;;5052022;28;20078;-86
2021/10/31 03:56:23;;;;;;;6.25;4.85;;;11.20;99.90;;;;;;5051769;28;20052;-86
2021/10/31 03:58:49;;;;;;;10.00;5.65;;;11.20;99.90;;;;;;5051568;28;20017;-86
2021/10/31 04:01:15;;;;;;;7.65;5.47;;;11.20;99.90;;;;;;5051559;28;20059;-86
2021/10/31 04:03:42;;;;;;;8.57;4.80;;;11.30;99.90;;;;;;5051261;28;20023;-85
2021/10/31 04:06:08;;;;;;;6.80;5.57;;;11.30;99.90;;;;;;5051402;28;20112;-85
2021/10/31 04:08:34;;;;;;;9.98;5.07;;;11.30;99.90;;;;;;5033450;28;20453;-85
2021/10/31 04:11:00;;;;;;;7.45;5.55;;;11.30;99.90;;;;;;5051551;28;20040;-86
2021/10/31 04:13:25;;;;;;;4.80;4.40;;;11.20;99.90;;;;;;5051257;28;20025;-85
2021/10/31 04:15:51;;;;;;;6.35;4.82;;;11.20;99.90;;;;;;5051255;28;20024;-86
2021/10/31 04:18:17;;;;;;;5.63;4.95;;;11.20;99.90;;;;;;5051170;28;20041;-86
2021/10/31 04:20:42;;;;;;;5.35;4.85;;;11.20;99.90;;;;;;5033454;28;20013;-86
2021/10/31 04:23:08;;;;;;;6.72;4.82;;;11.20;99.90;;;;;;5051407;28;20021;-86
2021/10/31 04:25:34;;;;;;;6.38;5.38;;;11.20;99.90;;;;;;5051323;28;20029;-86
2021/10/31 04:27:59;;;;;;;6.72;5.32;;;11.20;99.90;;;;;;5033462;28;20108;-85
2021/10/31 04:30:25;;;;;;;4.95;4.45;;;11.20;99.90;;;;;;5033489;28;20032;-85
2021/10/31 04:32:51;;;;;;;6.35;4.72;;;11.20;99.90;;;;;;5033310;28;20044;-84
2021/10/31 04:35:16;;;;;;;5.65;5.10;;;11.20;99.90;;;;;;5051431;28;20475;-84
2021/10/31 04:37:45;;;;;;;7.07;5.50;;;11.10;99.90;;;;;;5051431;28;20017;-86
2021/10/31 04:40:13;;;;;;;10.35;5.22;;;11.10;99.90;;;;;;5048864;28;20036;-85
2021/10/31 04:42:39;;;;;;;7.20;5.10;;;11.10;99.90;;;;;;5051241;28;20009;-86
2021/10/31 04:45:06;;;;;;;5.85;5.28;;;11.10;99.90;;;;;;5055030;28;20418;-84
2021/10/31 04:47:32;;;;;;;8.45;5.00;;;11.10;99.90;;;;;;5055479;28;20021;-84
2021/10/31 04:49:58;;;;;;;5.72;4.82;;;11.10;99.90;;;;;;5055173;28;20055;-86
2021/10/31 04:52:24;;;;;;;6.95;5.53;;;11.10;99.90;;;;;;5055301;28;20418;-85
2021/10/31 04:54:50;;;;;;;5.90;5.38;;;11.10;99.90;;;;;;5055364;28;20090;-86
2021/10/31 04:57:16;;;;;;;7.20;5.22;;;11.10;99.90;;;;;;5054932;28;20383;-86
2021/10/31 04:59:42;;;;;;;7.80;5.38;;;11.10;99.90;;;;;;5054946;28;20432;-85
2021/10/31 05:02:08;;;;;;;5.95;4.72;;;11.10;99.90;;;;;;5054873;28;20041;-85
2021/10/31 05:04:34;;;;;;;5.15;4.65;;;11.10;99.90;;;;;;5055030;28;20366;-85
2021/10/31 05:06:59;;;;;;;7.82;4.63;;;11.20;99.90;;;;;;5055108;28;20096;-85
2021/10/31 05:09:25;;;;;;;7.35;5.30;;;11.20;99.90;;;;;;5055083;28;20479;-86
2021/10/31 05:11:51;;;;;;;5.40;4.90;;;11.20;99.90;;;;;;5054098;28;20024;-85
2021/10/31 05:14:16;;;;;;;6.95;4.95;;;11.30;99.90;;;;;;5049631;28;20061;-86
2021/10/31 05:16:42;;;;;;;7.78;5.43;;;11.30;99.90;;;;;;5054689;28;20021;-85
2021/10/31 05:19:09;;;;;;;6.10;4.82;;;11.30;99.90;;;;;;5054574;28;20048;-86
2021/10/31 05:21:35;;;;;;;5.38;4.88;;;11.30;99.90;;;;;;5054800;28;20036;-85
2021/10/31 05:24:00;;;;;;;7.50;5.28;;;11.30;99.90;;;;;;5036677;28;20021;-86
2021/10/31 05:26:27;;;;;;;8.43;5.38;;;11.40;99.90;;;;;;5054702;28;20364;-85
2021/10/31 05:28:54;;;;;;;6.38;5.70;;;11.40;99.90;;;;;;5054322;28;20386;-86
2021/10/31 05:31:21;;;;;;;7.00;5.38;;;11.40;99.90;;;;;;5054546;28;20025;-85
2021/10/31 05:33:48;;;;;;;5.88;4.68;;;11.40;99.90;;;;;;5054414;28;20025;-86
2021/10/31 05:36:14;;;;;;;5.95;4.93;;;11.50;99.90;;;;;;5054516;28;20360;-86
2021/10/31 05:38:39;;;;;;;7.30;5.32;;;11.50;99.90;;;;;;5036474;28;20079;-85
2021/10/31 05:41:05;;;;;;;6.22;5.07;;;11.50;99.90;;;;;;5054568;28;20555;-86
2021/10/31 05:43:31;;;;;;;6.20;5.15;;;11.50;99.90;;;;;;5054700;28;20116;-85
2021/10/31 05:45:57;;;;;;;8.70;5.85;;;11.50;99.90;;;;;;5056775;28;20035;-87
2021/10/31 05:48:24;;;;;;;6.95;5.20;;;11.50;99.90;;;;;;5054536;28;20032;-86
2021/10/31 05:50:53;;;;;;;9.68;5.55;;;11.50;99.90;;;;;;5054406;28;20115;-86
2021/10/31 05:53:20;;;;;;;5.85;5.10;;;11.50;99.90;;;;;;5054134;28;20104;-85
2021/10/31 05:55:46;;;;;;;7.72;5.60;;;11.50;99.90;;;;;;5053830;28;20056;-86
2021/10/31 05:58:11;;;;;;;7.28;5.47;;;11.50;99.90;;;;;;5054259;28;20049;-86
2021/10/31 06:00:37;;;;;;;8.90;5.00;;;11.50;99.90;;;;;;5054321;28;20025;-86
2021/10/31 06:03:03;;;;;;;5.85;4.93;;;11.50;99.90;;;;;;5036397;28;20114;-86
2021/10/31 06:05:29;;;;;;;5.97;5.03;;;11.50;99.90;;;;;;5054238;28;20031;-86
2021/10/31 06:07:55;;;;;;;6.47;5.28;;;11.50;99.90;;;;;;5036026;28;20510;-85
2021/10/31 06:10:20;;;;;;;6.03;4.85;;;11.50;99.90;;;;;;5054090;28;20023;-86
2021/10/31 06:12:48;;;;;;;5.70;5.20;;;11.50;99.90;;;;;;5054110;28;20533;-86
2021/10/31 06:15:20;;;;;;;7.10;5.63;;;11.40;99.90;;;;;;5036004;28;20483;-86
2021/10/31 06:17:46;;;;;;;5.90;5.18;;;11.40;99.90;;;;;;5054092;28;20017;-87
2021/10/31 06:20:14;;;;;;;5.47;4.97;;;11.50;99.90;;;;;;5035733;28;20045;-86
2021/10/31 06:22:40;;;;;;;7.18;5.22;;;11.50;99.90;;;;;;5053960;28;20595;-86
2021/10/31 06:25:07;;;;;;;6.22;5.18;;;11.50;99.90;;;;;;5036169;28;20451;-86
2021/10/31 06:27:33;;;;;;;10.77;5.75;;;11.50;99.90;;;;;;5053856;28;20040;-86
2021/10/31 06:29:59;;;;;;;7.63;5.93;;;11.50;99.90;;;;;;5053787;28;20641;-85
2021/10/31 06:32:26;;;;;;;9.85;5.65;;;11.50;99.90;;;;;;5053746;28;20051;-85
2021/10/31 06:34:52;;;;;;;7.57;6.10;;;11.60;99.90;;;;;;5053642;28;20025;-86
2021/10/31 06:37:18;;;;;;;10.02;6.55;;;11.50;99.90;;;;;;5053632;28;20032;-85
2021/10/31 06:39:44;;;;;;;11.20;7.93;;;11.60;99.90;;;;;;5053849;28;20021;-85
2021/10/31 06:42:10;;;;;;;14.45;8.77;;;11.60;99.90;;;;;;5053618;28;20025;-85
2021/10/31 06:44:35;;;;;;;12.00;8.13;;;11.60;99.90;;;;;;5053582;28;20086;-85
2021/10/31 06:47:01;;;;;;;12.50;7.82;;;11.60;99.90;;;;;;5053625;28;20116;-84
2021/10/31 06:49:28;;;;;;;11.07;7.60;;;11.60;99.90;;;;;;5035553;28;20040;-86
2021/10/31 06:51:54;;;;;;;13.65;8.80;;;11.60;99.90;;;;;;5053324;28;20044;-86
2021/10/31 06:54:20;;;;;;;13.25;9.68;;;11.60;99.90;;;;;;5053289;28;20491;-85
2021/10/31 06:56:45;;;;;;;15.57;10.25;;;11.60;99.90;;;;;;5053560;28;20487;-86
2021/10/31 06:59:11;;;;;;;16.80;10.95;;;11.60;99.90;;;;;;5053195;28;20056;-86
2021/10/31 07:01:37;;;;;;;17.83;11.00;;;11.60;99.90;;;;;;5053370;28;20059;-86
2021/10/31 07:04:03;;;;;;;21.60;12.30;;;11.60;99.90;;;;;;5057761;28;20478;-86
2021/10/31 07:06:29;;;;;;;21.42;14.02;;;11.60;99.90;;;;;;5072232;28;20505;-86
2021/10/31 07:08:55;;;;;;;22.02;14.02;;;11.70;99.90;;;;;;5061029;28;20029;-86
2021/10/31 07:11:21;;;;;;;26.65;15.73;;;11.70;99.90;;;;;;5053055;28;20033;-86
2021/10/31 07:13:46;;;;;;;22.67;14.25;;;11.70;99.90;;;;;;5052775;28;20104;-86
2021/10/31 07:16:12;;;;;;;24.92;14.00;;;11.80;99.90;;;;;;5035128;28;20112;-86
2021/10/31 07:18:38;;;;;;;25.90;15.50;;;11.80;99.90;;;;;;5034768;28;20628;-86
2021/10/31 07:21:04;;;;;;;28.30;14.55;;;11.80;99.90;;;;;;5056298;28;20074;-86
2021/10/31 07:23:30;;;;;;;24.70;15.82;;;11.80;99.90;;;;;;5052886;28;20395;-85
2021/10/31 07:25:59;;;;;;;20.95;13.13;;;11.80;99.90;;;;;;5072760;28;20021;-86
2021/10/31 07:28:25;;;;;;;24.35;14.60;;;11.80;99.90;;;;;;5072464;28;20055;-86
2021/10/31 07:30:51;;;;;;;25.65;14.98;;;11.80;99.90;;;;;;5054590;28;20024;-87
2021/10/31 07:33:17;;;;;;;33.13;19.65;;;11.80;99.90;;;;;;5072528;28;20025;-87
2021/10/31 07:35:43;;;;;;;47.15;25.63;;;11.80;99.90;;;;;;5072463;28;20024;-86
2021/10/31 07:38:09;;;;;;;56.10;28.20;;;11.80;99.90;;;;;;5054636;28;20020;-86
2021/10/31 07:40:35;;;;;;;60.30;34.42;;;11.80;99.90;;;;;;5072574;28;20089;-86
2021/10/31 07:43:03;;;;;;;56.05;32.28;;;11.70;99.90;;;;;;5072404;28;20052;-87
2021/10/31 07:45:28;;;;;;;69.18;36.85;;;11.70;99.90;;;;;;5072328;28;20017;-85
2021/10/31 07:47:54;;;;;;;68.95;36.03;;;11.70;99.90;;;;;;5060758;28;20479;-85
2021/10/31 07:50:20;;;;;;;66.93;36.47;;;11.70;99.90;;;;;;5032648;28;20505;-87
2021/10/31 07:52:46;;;;;;;63.17;34.17;;;11.70;99.90;;;;;;5050819;28;20029;-86
2021/10/31 07:55:17;;;;;;;68.38;36.35;;;11.80;99.90;;;;;;5051490;28;20605;-86
2021/10/31 07:57:45;;;;;;;65.53;35.57;;;11.90;99.90;;;;;;5032612;28;20104;-86
2021/10/31 08:00:11;;;;;;;62.45;35.25;;;11.90;99.90;;;;;;5032375;28;20024;-86
2021/10/31 08:02:37;;;;;;;67.10;35.28;;;12.00;99.90;;;;;;5032800;28;20052;-86
2021/10/31 08:05:03;;;;;;;63.75;35.42;;;12.00;99.90;;;;;;5032554;28;20025;-86
2021/10/31 08:07:30;;;;;;;63.58;34.60;;;12.00;99.90;;;;;;5032202;28;20021;-86
2021/10/31 08:09:58;;;;;;;61.95;34.30;;;12.00;99.90;;;;;;5050036;28;20082;-85
2021/10/31 08:12:25;;;;;;;58.20;32.78;;;12.00;99.90;;;;;;5052019;28;20108;-85
2021/10/31 08:14:51;;;;;;;59.25;31.95;;;12.10;99.90;;;;;;5051949;28;20021;-85
2021/10/31 08:17:17;;;;;;;60.17;32.08;;;12.10;99.90;;;;;;5050304;28;20021;-85
2021/10/31 08:19:42;;;;;;;58.45;31.58;;;12.10;99.90;;;;;;5050507;28;20045;-86
2021/10/31 08:22:08;;;;;;;55.10;29.40;;;12.10;99.90;;;;;;5052011;28;20021;-85
2021/10/31 08:24:34;;;;;;;49.03;29.88;;;12.20;99.90;;;;;;5051801;28;20028;-86
2021/10/31 08:27:00;;;;;;;48.42;29.52;;;12.20;99.90;;;;;;5051780;28;20496;-85
2021/10/31 08:29:26;;;;;;;50.33;30.42;;;12.20;99.90;;;;;;5051770;28;20044;-86
2021/10/31 08:31:55;;;;;;;56.17;30.58;;;12.30;99.90;;;;;;5051595;28;20471;-85
2021/10/31 08:34:21;;;;;;;58.83;33.08;;;12.30;99.90;;;;;;5051598;28;20423;-86
2021/10/31 08:36:47;;;;;;;58.60;32.90;;;12.40;99.90;;;;;;5050456;28;20039;-86
2021/10/31 08:39:12;;;;;;;61.10;33.08;;;12.40;99.90;;;;;;5052524;28;20513;-86
2021/10/31 08:41:38;;;;;;;68.03;34.13;;;12.40;99.90;;;;;;5051759;28;20025;-80
2021/10/31 08:44:06;;;;;;;62.10;33.67;;;12.50;99.90;;;;;;5050735;28;20022;-81
2021/10/31 08:46:32;;;;;;;53.67;30.05;;;12.50;99.90;;;;;;5056349;28;20016;-84
2021/10/31 08:48:58;;;;;;;53.25;28.33;;;12.50;99.90;;;;;;5040641;28;20025;-83
2021/10/31 08:51:25;;;;;;;48.45;28.45;;;12.50;99.90;;;;;;5048311;28;20104;-81
2021/10/31 08:53:52;;;;;;;54.08;29.33;;;12.60;99.90;;;;;;5047573;28;20032;-83
2021/10/31 08:56:19;;;;;;;51.17;29.48;;;12.70;99.90;;;;;;5029515;28;20541;-82
2021/10/31 08:58:48;;;;;;;55.53;31.48;;;12.70;99.90;;;;;;5048129;28;20025;-79
2021/10/31 09:01:14;;;;;;;60.83;32.92;;;12.80;99.90;;;;;;5024764;28;20024;-81
2021/10/31 09:03:44;;;;;;;56.58;31.92;;;12.80;99.90;;;;;;5047265;28;20538;-81
2021/10/31 09:06:16;;;;;;;68.25;33.67;;;12.90;99.90;;;;;;5048275;28;20120;-80
2021/10/31 09:08:45;;;;;;;63.55;33.05;;;12.80;99.90;;;;;;5047929;28;20182;-83
2021/10/31 09:11:11;;;;;;;67.93;34.63;;;12.90;99.90;;;;;;5028473;28;20052;-81
2021/10/31 09:13:37;;;;;;;62.17;33.75;;;12.80;99.90;;;;;;5047437;28;20021;-82
2021/10/31 09:16:04;;;;;;;70.82;35.20;;;12.80;99.90;;;;;;5047160;28;20017;-84
2021/10/31 09:18:31;;;;;;;65.53;35.55;;;12.80;99.90;;;;;;5043998;28;20069;-83
2021/10/31 09:20:57;;;;;;;64.68;33.67;;;12.90;99.90;;;;;;5026840;28;20029;-82
2021/10/31 09:23:42;;;;;;;63.58;34.90;;;12.90;99.90;;;;;;5026842;28;20550;-82
2021/10/31 09:26:07;;;;;;;63.65;33.38;;;12.90;99.90;;;;;;5008633;28;20115;-82
2021/10/31 09:29:02;;;;;;;;;;;;;;;;;;;;;
2021/10/31 09:31:50;;;;;;;66.47;35.13;;;13.00;99.90;;;;;;5029941;28;20032;-83
2021/10/31 09:34:16;;;;;;;65.43;34.25;;;13.00;99.90;;;;;;5012914;28;20603;-82
2021/10/31 09:36:42;;;;;;;62.90;34.47;;;13.10;99.90;;;;;;5030155;28;20026;-83
2021/10/31 09:39:17;;;;;;;63.45;34.45;;;13.10;99.90;;;;;;5030449;28;20021;-82
2021/10/31 09:41:42;;;;;;;72.88;36.50;;;13.20;99.90;;;;;;5030639;28;20108;-82
2021/10/31 09:44:23;;;;;;;70.72;36.65;;;13.20;99.90;;;;;;5029997;28;20111;-83
2021/10/31 09:46:50;;;;;;;64.45;36.28;;;13.20;99.90;;;;;;5029124;28;20037;-82
2021/10/31 09:49:16;;;;;;;69.65;35.38;;;13.30;99.90;;;;;;5029673;28;20046;-82
2021/10/31 09:51:44;;;;;;;63.38;33.95;;;13.30;99.90;;;;;;5030560;28;20052;-82
2021/10/31 09:54:12;;;;;;;68.13;34.40;;;13.40;99.90;;;;;;5030098;28;20021;-83
2021/10/31 09:56:39;;;;;;;68.57;36.17;;;13.40;99.90;;;;;;5027203;28;20025;-82
2021/10/31 09:59:11;;;;;;;67.20;35.10;;;13.40;99.90;;;;;;5033820;28;20043;-84
2021/10/31 10:02:13;;;;;;;61.50;35.45;;;13.40;99.90;;;;;;5034027;28;20022;-84
2021/10/31 10:04:49;;;;;;;67.05;34.08;;;13.50;99.90;;;;;;5033045;28;20124;-84
2021/10/31 10:07:16;;;;;;;64.13;33.95;;;13.50;99.90;;;;;;5033711;28;20387;-84
2021/10/31 10:09:54;;;;;;;63.97;32.97;;;13.50;99.90;;;;;;5016665;28;20028;-83
2021/10/31 10:12:21;;;;;;;62.22;33.75;;;13.60;99.90;;;;;;5033912;28;20018;-84
2021/10/31 10:15:01;;;;;;;62.17;32.17;;;13.60;99.90;;;;;;5033625;28;20213;-84
2021/10/31 10:17:40;;;;;;;61.95;33.75;;;13.70;99.90;;;;;;5033157;28;20025;-83
2021/10/31 10:20:11;;;;;;;64.60;37.17;;;13.70;99.90;;;;;;5031869;28;20191;-84
2021/10/31 10:22:37;;;;;;;72.65;38.85;;;13.80;99.90;;;;;;5032533;28;20053;-74
2021/10/31 10:25:04;;;;;;;80.95;40.95;;;13.90;99.90;;;;;;5033346;28;20025;-74
2021/10/31 10:27:37;;;;;;;77.95;41.22;;;13.90;99.90;;;;;;5033382;28;20026;-75
2021/10/31 10:30:31;;;;;;;78.43;40.60;;;14.00;99.90;;;;;;5033523;28;20033;-74
2021/10/31 10:32:58;;;;;;;71.97;39.33;;;14.00;99.90;;;;;;5012522;28;20052;-74
2021/10/31 10:35:27;;;;;;;76.80;39.67;;;14.00;99.90;;;;;;5032269;28;20043;-75
2021/10/31 10:37:57;;;;;;;80.53;40.70;;;13.90;99.90;;;;;;5029707;28;20030;-74
2021/10/31 10:40:26;;;;;;;80.05;42.05;;;13.90;99.90;;;;;;5012788;28;20026;-74
2021/10/31 10:42:53;;;;;;;89.50;41.33;;;13.90;99.90;;;;;;5012942;28;20053;-75
2021/10/31 10:45:31;;;;;;;75.65;38.67;;;13.90;99.90;;;;;;5013296;28;20036;-74
2021/10/31 10:48:03;;;;;;;76.75;40.67;;;14.00;99.90;;;;;;5013355;28;20034;-74
2021/10/31 10:50:36;;;;;;;66.00;34.97;;;13.90;99.90;;;;;;5013565;28;20026;-74
2021/10/31 10:53:04;;;;;;;72.53;35.17;;;14.00;99.90;;;;;;5013187;28;20395;-74
2021/10/31 10:55:34;;;;;;;76.13;37.20;;;14.00;99.90;;;;;;5013158;28;20465;-75
2021/10/31 10:58:07;;;;;;;74.05;36.53;;;14.00;99.90;;;;;;5013007;28;20045;-74
2021/10/31 11:00:37;;;;;;;70.35;35.47;;;14.10;99.90;;;;;;5013153;28;20033;-74
2021/10/31 11:03:08;;;;;;;74.95;36.38;;;14.10;99.90;;;;;;5011733;28;20024;-74
2021/10/31 11:05:35;;;;;;;69.53;36.20;;;14.00;99.90;;;;;;5011654;28;20014;-74
2021/10/31 11:08:07;;;;;;;69.75;36.80;;;14.00;99.90;;;;;;5017262;28;20025;-74
2021/10/31 11:10:33;;;;;;;74.78;36.47;;;14.00;99.90;;;;;;5015068;28;20063;-74
2021/10/31 11:13:04;;;;;;;69.80;33.58;;;14.00;99.90;;;;;;5032800;28;20049;-75
2021/10/31 11:15:32;;;;;;;73.97;36.92;;;14.10;99.90;;;;;;5032761;28;20057;-74
2021/10/31 11:18:02;;;;;;;79.72;39.17;;;14.10;99.90;;;;;;5027622;28;20108;-74
2021/10/31 11:20:33;;;;;;;61.05;33.15;;;14.10;99.90;;;;;;5050467;28;20048;-75
2021/10/31 11:23:03;;;;;;;61.70;32.85;;;14.20;99.90;;;;;;5052341;28;20049;-74
2021/10/31 11:25:31;;;;;;;65.07;31.48;;;14.20;99.90;;;;;;5034432;28;20075;-77
2021/10/31 11:28:00;;;;;;;69.32;34.25;;;14.30;99.90;;;;;;5052133;28;20079;-76
2021/10/31 11:30:30;;;;;;;70.93;37.78;;;14.30;99.90;;;;;;5034347;28;20021;-74
2021/10/31 11:32:57;;;;;;;68.38;34.47;;;14.40;99.90;;;;;;5051982;28;20045;-74
2021/10/31 11:35:24;;;;;;;65.72;34.00;;;14.40;99.90;;;;;;5034329;28;20490;-74
2021/10/31 11:37:58;;;;;;;71.32;33.60;;;14.50;99.90;;;;;;5051906;28;20025;-74
2021/10/31 11:40:41;;;;;;;62.58;31.98;;;14.60;99.90;;;;;;5052296;28;20017;-74
2021/10/31 11:43:19;;;;;;;65.38;31.92;;;14.60;99.90;;;;;;5052061;28;20498;-74
2021/10/31 11:45:47;;;;;;;60.03;28.92;;;14.70;99.90;;;;;;5052185;28;20055;-74
2021/10/31 11:48:14;;;;;;;59.45;30.20;;;14.70;99.90;;;;;;5052561;28;20021;-74
2021/10/31 11:50:43;;;;;;;56.92;28.20;;;14.70;99.90;;;;;;5052736;28;20396;-74
2021/10/31 11:53:18;;;;;;;62.22;29.70;;;14.70;99.90;;;;;;5054301;28;20093;-74
2021/10/31 11:55:47;;;;;;;49.90;26.65;;;14.80;99.90;;;;;;5034469;28;20021;-74
2021/10/31 11:58:32;;;;;;;54.03;26.25;;;14.80;99.90;;;;;;5052285;28;20592;-73
2021/10/31 12:00:59;;;;;;;50.13;26.05;;;14.80;99.90;;;;;;5052336;28;20049;-74
2021/10/31 12:03:44;;;;;;;50.10;25.73;;;14.80;99.90;;;;;;5052312;28;20021;-74
2021/10/31 12:06:15;;;;;;;55.33;27.77;;;14.90;99.90;;;;;;5052483;28;20095;-73
2021/10/31 12:08:44;;;;;;;56.20;29.45;;;14.90;99.90;;;;;;5052241;28;20029;-74
2021/10/31 12:11:10;;;;;;;54.35;26.48;;;14.90;99.90;;;;;;5052691;28;20029;-73
2021/10/31 12:13:46;;;;;;;49.78;25.63;;;14.90;99.90;;;;;;5052317;28;20155;-74
2021/10/31 12:16:16;;;;;;;53.00;24.63;;;14.90;99.90;;;;;;5052515;28;20036;-74
2021/10/31 12:18:52;;;;;;;46.13;23.60;;;14.90;99.90;;;;;;5052221;28;20455;-74
2021/10/31 12:21:29;;;;;;;41.38;22.70;;;14.90;99.90;;;;;;5051518;28;20048;-74
2021/10/31 12:24:03;;;;;;;41.15;23.48;;;14.90;99.90;;;;;;5045604;28;20029;-74
2021/10/31 12:26:38;;;;;;;43.72;22.45;;;15.00;99.90;;;;;;5032075;28;20055;-74
2021/10/31 12:29:16;;;;;;;38.40;21.35;;;15.00;99.90;;;;;;5031763;28;20057;-74
2021/10/31 12:32:02;;;;;;;43.85;22.50;;;15.00;99.90;;;;;;5032147;28;20025;-74
2021/10/31 12:34:49;;;;;;;42.47;21.80;;;15.10;99.90;;;;;;5031932;28;20029;-74
2021/10/31 12:37:23;;;;;;;53.22;26.98;;;15.10;99.90;;;;;;5031833;28;20022;-74
2021/10/31 12:39:50;;;;;;;48.60;25.27;;;15.10;99.90;;;;;;5051114;28;20040;-74
2021/10/31 12:42:19;;;;;;;51.47;26.77;;;15.10;99.90;;;;;;5051584;28;20022;-74
2021/10/31 12:44:59;;;;;;;52.40;26.75;;;15.20;99.90;;;;;;5033669;28;20037;-73
2021/10/31 12:47:39;;;;;;;45.22;26.27;;;15.20;99.90;;;;;;5051692;28;20028;-74
2021/10/31 12:50:19;;;;;;;53.95;26.85;;;15.20;99.90;;;;;;5051539;28;20025;-74